• Join FlightAware (Why Join?)
  • Login
  • US Flag 
04:53PM EDT


 

Airport Tracker/Info


-or-


 

Live Flight TrackerFlight Track Log ✈ GTX137 ✈ 01-May-2014 ✈ KHOU - KADS

Flight Track Log - Related Links

Times and Time Zones

All times are in EDT time to prevent confusion due to time zone crossing. See the GTX137 flight status page for this flight to view local times or setup timezone preferences in your user account.

Time Position Orientation Groundspeed Altitude Reporting Facility
EDT Latitude Longitude Course Direction KTS MPH feet Rate Location/Type
09:11PM 29.6564 -95.2889 302° West 121 139 400  Level Houston Center
09:12PM 29.6739 -95.3206 308° West 119 137 1,400 840 Climbing Houston Center
09:13PM 29.6794 -95.3358 293° West 123 142 1,700 600 Climbing Houston Center
09:13PM 29.6858 -95.3575 289° West 129 148 2,000 660 Climbing Houston Center
09:14PM 29.6942 -95.3747 299° West 127 146 2,400 720 Climbing Houston Center
09:14PM 29.7017 -95.3942 294° West 130 150 2,800 660 Climbing Houston Center
09:15PM 29.7086 -95.4131 293° West 127 146 3,100 240 Climbing Houston Center
09:15PM 29.7161 -95.4358 291° West 143 165 3,100 -120 Level Houston Center
09:16PM 29.7244 -95.4564 295° West 140 161 3,000  Descending Houston Center
09:16PM 29.7358 -95.4911 291° West 170 196 3,100 60 Climbing Houston Center
09:17PM 29.7439 -95.5064 301° West 163 188 3,100 240 Level Houston Center
09:17PM 29.7569 -95.5392 295° West 171 197 3,400 540 Climbing Houston Center
09:18PM 29.7633 -95.5531 298° West 166 191 3,700 840 Climbing Houston Center
09:18PM 29.7733 -95.5806 293° West 134 154 4,300 780 Climbing Houston Center
09:19PM 29.7783 -95.5917 297° West 140 161 4,500 240 Climbing Houston Center
09:19PM 29.7894 -95.6219 293° West 135 155 4,600 60 Climbing Houston Center
09:20PM 29.7978 -95.6442 293° West 147 169 4,600  Level Houston Center
09:20PM 29.8067 -95.6728 290° West 168 193 4,600 240 Level Houston Center
09:21PM 29.8158 -95.6928 298° West 164 189 4,900 780 Climbing Houston Center
09:21PM 29.8347 -95.7056 330° Northwest 148 170 5,400 840 Climbing Houston Center
09:22PM 29.8517 -95.7086 351° North 144 166 5,800 840 Climbing Houston Center
09:22PM 29.8694 -95.7161 340° North 124 143 6,300 780 Climbing Houston Center
09:23PM 29.8861 -95.7225 342° North 135 155 6,600 240 Climbing Houston Center
09:24PM 29.9108 -95.7328 340° North 145 167 6,600  Level Houston Center
09:24PM 29.9231 -95.7361 347° North 139 160 6,600  Level Houston Center
09:25PM 29.9519 -95.7475 341° North 154 177 6,600  Level Houston Center
09:25PM 29.9656 -95.7508 348° North 157 181 6,600 -120 Level Houston Center
09:26PM 29.9933 -95.7642 337° Northwest 159 183 6,500 -120 Descending Houston Center
09:26PM 30.0069 -95.7675 348° North 157 181 6,500 60 Level Houston Center
09:26PM 30.0322 -95.7767 343° North 159 183 6,600 60 Climbing Houston Center
09:27PM 30.0492 -95.7808 348° North 156 180 6,600  Level Houston Center
09:28PM 30.0753 -95.7908 342° North 155 178 6,600 -120 Level Houston Center
09:28PM 30.0986 -95.7994 342° North 156 180 6,500  Descending Houston Center
09:29PM 30.1189 -95.8075 341° North 156 180 6,600 60 Climbing Houston Center
09:29PM 30.1400 -95.8136 346° North 156 180 6,600  Level Houston Center
09:30PM 30.1622 -95.8242 338° Northwest 154 177 6,600  Level Houston Center
09:30PM 30.1811 -95.8272 352° North 155 178 6,600  Level Houston Center
09:31PM 30.2033 -95.8389 336° Northwest 152 175 6,600  Level Houston Center
09:31PM 30.2217 -95.8428 350° North 155 178 6,600  Level Houston Center
09:32PM 30.2464 -95.8506 345° North 151 174 6,600  Level Houston Center
09:32PM 30.2611 -95.8558 343° North 151 174 6,600 -120 Level Houston Center
09:33PM 30.2833 -95.8658 339° North 151 174 6,500  Descending Houston Center
09:33PM 30.3019 -95.8694 350° North 151 174 6,600  Climbing Houston Center
09:34PM 30.3244 -95.8803 337° Northwest 153 176 6,500 -120 Descending Houston Center
09:34PM 30.3433 -95.8861 345° North 152 175 6,500 60 Level Houston Center
09:35PM 30.3658 -95.8950 341° North 156 180 6,600 60 Climbing Houston Center
09:35PM 30.3836 -95.8997 347° North 152 175 6,600 -120 Level Houston Center
09:36PM 30.4111 -95.9114 340° North 156 180 6,500 -120 Descending Houston Center
09:36PM 30.4269 -95.9150 349° North 157 181 6,500 60 Level Houston Center
09:37PM 30.4544 -95.9258 341° North 158 182 6,600 60 Climbing Houston Center
09:37PM 30.4756 -95.9336 342° North 157 181 6,600  Level Houston Center
09:38PM 30.4914 -95.9408 339° North 159 183 6,600 -120 Level Houston Center
09:38PM 30.5178 -95.9494 344° North 157 181 6,500  Descending Houston Center
09:39PM 30.5325 -95.9556 340° North 158 182 6,600 60 Climbing Houston Center
09:39PM 30.5606 -95.9642 345° North 157 181 6,600  Level Houston Center
09:40PM 30.5736 -95.9678 347° North 159 183 6,600  Level Houston Center
09:40PM 30.6031 -95.9792 342° North 158 182 6,600  Level Houston Center
09:41PM 30.6189 -95.9844 344° North 161 185 6,600  Level Houston Center
09:41PM 30.6475 -95.9936 345° North 162 186 6,600  Level Houston Center
09:42PM 30.6622 -95.9989 343° North 160 184 6,600  Level Houston Center
09:42PM 30.6900 -96.0083 344° North 161 185 6,600  Level Houston Center
09:43PM 30.7053 -96.0133 344° North 160 184 6,600  Level Houston Center
09:43PM 30.7328 -96.0242 341° North 159 183 6,600  Level Houston Center
09:44PM 30.7489 -96.0303 342° North 160 184 6,600 -120 Level Houston Center
09:44PM 30.7761 -96.0383 346° North 161 185 6,500  Descending Houston Center
09:45PM 30.7942 -96.0444 344° North 160 184 6,600 60 Climbing Houston Center
09:45PM 30.8183 -96.0519 345° North 160 184 6,600 -120 Level Houston Center
09:46PM 30.8353 -96.0592 340° North 161 185 6,500  Descending Houston Center
09:46PM 30.8642 -96.0678 346° North 160 184 6,600  Climbing Houston Center
09:47PM 30.9053 -96.0822 343° North 160 184 6,600  Level Houston Center
09:48PM 30.9483 -96.0964 344° North 160 184 6,600  Level Houston Center
09:50PM 30.9900 -96.1128 341° North 160 184 6,600  Level Houston Center
09:51PM 31.0411 -96.1308 343° North 159 183 6,600  Level Houston Center
09:52PM 31.0819 -96.1447 344° North 158 182 6,600  Level Houston Center
09:53PM 31.1253 -96.1603 343° North 159 183 6,600  Level Houston Center
09:54PM 31.1669 -96.1764 342° North 159 183 6,600  Level Houston Center
09:55PM 31.2089 -96.1928 342° North 159 183 6,600  Level Houston Center
09:56PM 31.2514 -96.2078 343° North 159 183 6,600  Level Houston Center
09:57PM 31.2942 -96.2228 343° North 159 183 6,600  Level Houston Center
09:58PM 31.3369 -96.2375 344° North 160 184 6,600  Level Houston Center
09:59PM 31.3783 -96.2533 342° North 159 183 6,600  Level Houston Center
10:00PM 31.4217 -96.2689 343° North 159 183 6,600  Level Houston Center
10:01PM 31.4744 -96.2847 346° North 160 184 6,600  Level Houston Center
10:02PM 31.5167 -96.3003 343° North 160 184 6,600  Level Houston Center
10:03PM 31.5597 -96.3164 342° North 160 184 6,600  Level Houston Center
10:04PM 31.6017 -96.3314 343° North 160 184 6,600  Level Houston Center
10:05PM 31.6450 -96.3481 342° North 160 184 6,600  Level Houston Center
10:06PM 31.6869 -96.3653 341° North 160 184 6,600  Level Houston Center
10:07PM 31.7494 -96.3883 343° North 161 185 6,600  Level Fort Worth Center
10:08PM 31.7906 -96.4044 342° North 160 184 6,600  Level Fort Worth Center
10:09PM 31.8336 -96.4208 342° North 161 185 6,600  Level Fort Worth Center
10:10PM 31.8747 -96.4364 342° North 158 182 6,600  Level Fort Worth Center
10:11PM 31.9172 -96.4519 343° North 159 183 6,600  Level Fort Worth Center
10:12PM 31.9592 -96.4681 342° North 160 184 6,600  Level Fort Worth Center
10:13PM 32.0019 -96.4853 341° North 163 188 6,600  Level Fort Worth Center
10:14PM 32.0544 -96.5028 344° North 164 189 6,600  Level Fort Worth Center
10:15PM 32.0972 -96.5178 343° North 162 186 6,600  Level Fort Worth Center
10:16PM 32.1403 -96.5336 343° North 163 188 6,600  Level Fort Worth Center
10:17PM 32.1831 -96.5494 343° North 161 185 6,600 -180 Level Fort Worth Center
10:18PM 32.2322 -96.5658 344° North 164 189 6,300 -420 Descending Fort Worth Center
10:19PM 32.2789 -96.5864 340° North 176 203 5,800 -600 Descending Fort Worth Center
10:21PM 32.3314 -96.6056 343° North 180 207 5,100 -660 Descending Fort Worth Center
10:22PM 32.3794 -96.6236 342° North 181 208 4,500 -300 Descending Fort Worth Center
10:23PM 32.4244 -96.6397 343° North 170 196 4,500  Level Fort Worth Center
10:24PM 32.4719 -96.6542 346° North 166 191 4,500  Level Fort Worth Center
10:25PM 32.5153 -96.6667 346° North 164 189 4,600  Climbing Fort Worth Center
10:26PM 32.5586 -96.6811 344° North 163 188 4,500  Descending Fort Worth Center
10:27PM 32.6067 -96.6964 345° North 163 188 4,600  Climbing Fort Worth Center
10:28PM 32.6494 -96.7117 343° North 163 188 4,500 -60 Descending Fort Worth Center
10:29PM 32.6931 -96.7256 345° North 163 188 4,500 -540 Level Fort Worth Center
10:30PM 32.7442 -96.7422 345° North 175 201 3,500 -900 Descending Fort Worth Center
10:31PM 32.7922 -96.7600 343° North 178 205 2,700 -600 Descending Fort Worth Center
10:32PM 32.8367 -96.7794 340° North 170 196 2,300 -300 Descending Fort Worth Center
10:33PM 32.8725 -96.7936 342° North 126 145 2,100 -180 Descending Fort Worth Center
10:34PM 32.9014 -96.8072 338° Northwest 116 133 2,000 -420 Descending Fort Worth Center
10:35PM 32.9328 -96.8214 339° North 117 135 1,300 -600 Descending Fort Worth Center
10:36PM 32.9578 -96.8319 340° North 115 132 800 -540 Descending Fort Worth Center
10:38PM 32.9667 -96.8333 337° Northwest  Level FlightAware Approximate
10:45PM 32.9686 -96.8364 337° Northwest  Level Estimated